This is the latest recevied weather packets stored in our database for station/object VE6CWS-7. If no packets are shown the sender has not sent any weather packets the latest 10 day(s).
| Time | Temp. | Humidity | Pressure | Rain* | Wind** | Luminosity | Snow |
|---|---|---|---|---|---|---|---|
| 1777600903 | 18.89° C | 25% | 1015.4 hPa | 0 mm | - | - | - |
| 1777599942 | 19.44° C | 24% | 1015.4 hPa | 0 mm | - | - | - |
| 1777599037 | 20° C | 25% | 1015.5 hPa | 0 mm | - | - | - |
| 1777598141 | 21.11° C | 22% | 1015.5 hPa | 0 mm | - | - | - |
| 1777597297 | 20.56° C | 22% | 1015.6 hPa | 0 mm | - | - | - |
| 1777596336 | 20° C | 23% | 1015.7 hPa | 0 mm | - | - | - |
| 1777595437 | 20.56° C | 21% | 1015.7 hPa | 0 mm | - | - | - |
| 1777594533 | 20.56° C | 22% | 1015.9 hPa | 0 mm | - | - | - |
| 1777593691 | 20.56° C | 21% | 1016 hPa | 0 mm | - | - | - |
| 1777592753 | 20.56° C | 21% | 1016.2 hPa | 0 mm | - | - | - |
| 1777591849 | 20.56° C | 22% | 1016.3 hPa | 0 mm | - | - | - |
| 1777590952 | 20.56° C | 25% | 1016.5 hPa | 0 mm | - | - | - |
| 1777590105 | 21.11° C | 23% | 1016.7 hPa | 0 mm | - | - | - |
| 1777589145 | 20° C | 25% | 1017 hPa | 0 mm | - | - | - |
| 1777588246 | 20.56° C | 25% | 1017 hPa | 0 mm | - | - | - |
| 1777587341 | 20° C | 25% | 1017.2 hPa | 0 mm | - | - | - |
| 1777586499 | 19.44° C | 27% | 1017.3 hPa | 0 mm | - | - | - |
| 1777585540 | 19.44° C | 26% | 1017.5 hPa | 0 mm | - | - | - |
| 1777584638 | 19.44° C | 29% | 1017.6 hPa | 0 mm | - | - | - |
| 1777583736 | 20° C | 28% | 1017.8 hPa | 0 mm | - | - | - |
| 1777582893 | 18.89° C | 29% | 1017.9 hPa | 0 mm | - | - | - |
| 1777581967 | 18.89° C | 29% | 1018.1 hPa | 0 mm | - | - | - |
| 1777581053 | 18.33° C | 29% | 1018.3 hPa | 0 mm | - | - | - |
| 1777580173 | 18.33° C | 29% | 1018.4 hPa | 0 mm | - | - | - |
| 1777579309 | 17.78° C | 31% | 1018.7 hPa | 0 mm | - | - | - |
* Rain latest hour (hover to see other rain measurements)
** Current wind speed in m/s (hover to see current wind gust speed)